createdAt,value
2018-12-12T00:02:32.615Z,5.43
2018-12-12T00:08:27.626Z,17.28
2018-12-12T00:14:22.611Z,14.45
2018-12-12T00:20:17.623Z,9.63
2018-12-12T00:26:12.620Z,13.97
2018-12-12T00:32:07.641Z,8.92
2018-12-12T00:38:02.652Z,9.66
2018-12-12T00:43:57.687Z,7.76
2018-12-12T00:49:52.625Z,5.82
2018-12-12T00:55:47.723Z,2.57
2018-12-12T01:01:42.646Z,2.08
2018-12-12T01:07:37.703Z,2.48
2018-12-12T01:13:32.639Z,2.1
2018-12-12T01:19:27.645Z,1.94
2018-12-12T01:25:22.646Z,1.43
2018-12-12T01:31:17.729Z,1.24
2018-12-12T01:37:12.622Z,3.17
2018-12-12T01:43:07.652Z,2.38
2018-12-12T01:49:02.643Z,1.77
2018-12-12T01:54:57.671Z,4.7
2018-12-12T02:00:52.658Z,3.8
2018-12-12T02:06:47.656Z,1.9
2018-12-12T02:12:42.639Z,1.04
2018-12-12T02:18:37.635Z,1.8
2018-12-12T02:24:32.663Z,1.08
2018-12-12T02:30:27.658Z,4.11
2018-12-12T02:36:22.697Z,0.92
2018-12-12T02:42:17.655Z,0.99
2018-12-12T02:48:12.665Z,0.87
2018-12-12T02:54:07.667Z,1.48
2018-12-12T03:00:02.664Z,2.03
2018-12-12T03:05:57.648Z,2.2
2018-12-12T03:11:52.641Z,1.29
2018-12-12T03:17:47.647Z,1.87
2018-12-12T03:23:42.671Z,1.51
2018-12-12T03:29:37.669Z,1.4
2018-12-12T03:35:32.702Z,1.39
2018-12-12T03:41:27.656Z,1.16
2018-12-12T03:47:22.674Z,2.56
2018-12-12T03:53:17.676Z,2.07
2018-12-12T03:59:12.664Z,1.02
2018-12-12T04:05:07.685Z,1
2018-12-12T04:11:02.684Z,1.04
2018-12-12T04:16:57.686Z,0.97
2018-12-12T04:22:52.676Z,1.28
2018-12-12T04:28:47.664Z,0.73
2018-12-12T04:34:42.712Z,1.23
2018-12-12T04:40:37.658Z,1.54
2018-12-12T04:46:32.672Z,1.29
2018-12-12T04:52:27.679Z,2.01
2018-12-12T04:58:22.697Z,1.73
2018-12-12T05:04:17.693Z,1.49
2018-12-12T05:10:12.693Z,1.14
2018-12-12T05:16:07.732Z,1.04
2018-12-12T05:22:02.696Z,1.38
2018-12-12T05:27:57.681Z,1.86
2018-12-12T05:33:52.684Z,1.53
2018-12-12T05:39:47.675Z,2.03
2018-12-12T05:45:42.719Z,2.03
2018-12-12T05:51:37.681Z,2.67
2018-12-12T05:57:32.721Z,1.18
2018-12-12T06:03:27.704Z,2.5
2018-12-12T06:09:22.726Z,2.44
2018-12-12T06:15:17.699Z,19.68
2018-12-12T06:21:12.734Z,10.9
2018-12-12T06:27:07.691Z,9.8
2018-12-12T06:33:02.740Z,2.84
2018-12-12T06:38:57.719Z,3.2
2018-12-12T06:44:52.713Z,13.14
2018-12-12T06:50:47.691Z,6.69
2018-12-12T06:56:42.747Z,12.55
2018-12-12T07:02:37.776Z,4.9
2018-12-12T07:08:32.740Z,7.37
2018-12-12T07:14:27.712Z,12.95
2018-12-12T07:20:22.693Z,11.41
2018-12-12T07:26:17.711Z,7.42
2018-12-12T07:32:12.741Z,7.59
2018-12-12T07:38:07.693Z,4.71
2018-12-12T07:44:02.742Z,3.85
2018-12-12T07:49:57.745Z,4.14
2018-12-12T07:55:52.708Z,3.93
2018-12-12T08:01:47.710Z,5.06
2018-12-12T08:07:42.745Z,7.84
2018-12-12T08:13:37.718Z,6.29
2018-12-12T08:19:32.724Z,6.1
2018-12-12T08:25:27.738Z,13.53
2018-12-12T08:31:22.718Z,18.81
2018-12-12T08:37:17.769Z,18.56
2018-12-12T08:43:12.721Z,17.26
2018-12-12T08:49:08.202Z,24.11
2018-12-12T08:55:02.741Z,7.62
2018-12-12T09:00:57.712Z,7.35
2018-12-12T09:06:52.715Z,13.49
2018-12-12T09:12:47.721Z,14.97
2018-12-12T09:18:42.727Z,12.5
2018-12-12T09:24:37.733Z,11.86
2018-12-12T09:30:32.768Z,11.07
2018-12-12T09:36:27.807Z,12.6
2018-12-12T09:42:22.729Z,16.01
2018-12-12T09:48:19.390Z,17.01
2018-12-12T09:54:12.723Z,15.89
2018-12-12T10:00:07.745Z,17.92
2018-12-12T10:06:02.738Z,9.72
2018-12-12T10:11:57.729Z,8.21
2018-12-12T10:17:52.733Z,8.45
2018-12-12T10:23:47.765Z,8.59
2018-12-12T10:29:42.745Z,9.29
2018-12-12T10:35:37.766Z,9.82
2018-12-12T10:41:32.726Z,11.31
2018-12-12T10:47:27.768Z,10.5
2018-12-12T10:53:22.806Z,11.23
2018-12-12T10:59:17.736Z,11.33
2018-12-12T11:05:12.758Z,10.94
2018-12-12T11:11:07.736Z,11.78
2018-12-12T11:17:02.767Z,11.54
2018-12-12T11:22:57.753Z,12.56
2018-12-12T11:28:52.780Z,14.7
2018-12-12T11:34:47.783Z,13.3
2018-12-12T11:40:42.799Z,13.17
2018-12-12T11:46:37.766Z,14.43
2018-12-12T11:52:32.806Z,19.52
2018-12-12T11:58:27.769Z,31.13
2018-12-12T12:04:22.765Z,20
2018-12-12T12:10:17.793Z,20.13
2018-12-12T12:16:12.777Z,23.61
2018-12-12T12:22:07.791Z,40.03
2018-12-12T12:28:02.788Z,38.56
2018-12-12T12:34:03.069Z,18.34
2018-12-12T12:39:52.756Z,14.55
2018-12-12T12:45:47.784Z,17.17
2018-12-12T12:51:42.761Z,17.77
2018-12-12T12:57:37.793Z,21.88
2018-12-12T13:03:32.844Z,19.99
2018-12-12T13:09:27.774Z,18.88
2018-12-12T13:15:22.766Z,15.01
2018-12-12T13:21:17.777Z,14.7
2018-12-12T13:27:12.851Z,16.39
2018-12-12T13:33:07.805Z,15.44
2018-12-12T13:39:02.807Z,17.03
2018-12-12T13:44:57.782Z,17.27
2018-12-12T13:50:52.787Z,16.4
2018-12-12T13:56:47.816Z,16.8
2018-12-12T14:02:42.795Z,16.91
2018-12-12T14:08:37.795Z,16.82
2018-12-12T14:14:32.839Z,20.15
2018-12-12T14:20:27.779Z,22.87
2018-12-12T14:26:22.795Z,22.52
2018-12-12T14:32:17.838Z,18.71
2018-12-12T14:38:12.794Z,17.44
2018-12-12T14:44:07.799Z,19.5
2018-12-12T14:50:02.830Z,22.43
2018-12-12T14:55:57.791Z,32.09
2018-12-12T15:01:52.840Z,49.25
2018-12-12T15:07:47.857Z,123.09
2018-12-12T15:13:42.805Z,86.81
2018-12-12T15:19:37.856Z,76.13
2018-12-12T15:25:32.808Z,51.98
2018-12-12T15:31:27.842Z,42.8
2018-12-12T15:37:23.331Z,30.05
2018-12-12T15:43:17.794Z,31.09
2018-12-12T15:49:12.883Z,30.57
2018-12-12T15:55:07.813Z,32.63
2018-12-12T16:01:02.834Z,40.02
2018-12-12T16:06:57.811Z,32.82
2018-12-12T16:12:52.817Z,29.09
2018-12-12T16:18:47.834Z,31.17
2018-12-12T16:24:42.813Z,30.16
2018-12-12T16:30:37.817Z,28.43
2018-12-12T16:36:32.819Z,27.52
2018-12-12T16:42:27.878Z,35.14
2018-12-12T16:48:22.855Z,37.92
2018-12-12T16:54:17.855Z,33.39
2018-12-12T17:00:12.837Z,33.18
2018-12-12T17:06:07.841Z,35.87
2018-12-12T17:12:02.810Z,40.21
2018-12-12T17:17:57.833Z,47.85
2018-12-12T17:23:52.822Z,40.33
2018-12-12T17:29:47.847Z,41.72
2018-12-12T17:35:42.860Z,38.6
2018-12-12T17:41:37.823Z,33.04
2018-12-12T17:47:32.851Z,42.42
2018-12-12T17:53:27.871Z,42.08
2018-12-12T17:59:22.856Z,38.13
2018-12-12T18:05:17.843Z,44.68
2018-12-12T18:11:12.862Z,43
2018-12-12T18:17:07.848Z,41.24
2018-12-12T18:23:02.889Z,41.85
2018-12-12T18:28:57.890Z,94.97
2018-12-12T18:34:52.863Z,84.22
2018-12-12T18:40:47.841Z,49.91
2018-12-12T18:46:42.878Z,46
2018-12-12T18:52:37.919Z,39.97
2018-12-12T18:58:32.852Z,41.8
2018-12-12T19:04:27.864Z,37.67
2018-12-12T19:10:22.842Z,32.85
2018-12-12T19:16:17.879Z,29.97
2018-12-12T19:22:12.882Z,34.71
2018-12-12T19:28:07.864Z,32.23
2018-12-12T19:34:02.863Z,43.33
2018-12-12T19:39:57.887Z,41.51
2018-12-12T19:45:52.886Z,36.11
2018-12-12T19:51:47.860Z,35.72
2018-12-12T19:57:42.895Z,37.42
2018-12-12T20:03:39.308Z,41.07
2018-12-12T20:09:32.917Z,37.26
2018-12-12T20:15:27.871Z,38.51
2018-12-12T20:21:22.873Z,43.54
2018-12-12T20:27:17.894Z,19.83
2018-12-12T20:33:12.890Z,13.76
2018-12-12T20:39:07.893Z,8.74
2018-12-12T20:45:02.881Z,10.4
2018-12-12T20:50:57.942Z,33.78
2018-12-12T20:56:52.870Z,16.91
2018-12-12T21:02:47.892Z,9.64
2018-12-12T21:08:42.895Z,4.09
2018-12-12T21:14:37.880Z,1.48
2018-12-12T21:20:32.880Z,29.34
2018-12-12T21:26:27.884Z,28.26
2018-12-12T21:32:22.892Z,32.3
2018-12-12T21:38:17.886Z,31.07
2018-12-12T21:44:12.904Z,28.37
2018-12-12T21:50:07.905Z,22.75
2018-12-12T21:56:02.906Z,24.4
2018-12-12T22:01:57.895Z,24.86
2018-12-12T22:07:52.980Z,25.67
2018-12-12T22:13:47.900Z,26.02
2018-12-12T22:19:42.942Z,25.5
2018-12-12T22:25:37.931Z,24.76
2018-12-12T22:31:32.894Z,32.59
2018-12-12T22:37:27.970Z,23.41
2018-12-12T22:43:22.946Z,25.38
2018-12-12T22:49:17.942Z,101.78
2018-12-12T22:55:12.927Z,32.82
2018-12-12T23:01:08.001Z,20.68
2018-12-12T23:07:02.934Z,25.82
2018-12-12T23:12:57.907Z,19.12
2018-12-12T23:18:52.916Z,19.33
2018-12-12T23:24:47.924Z,21.42
2018-12-12T23:30:42.951Z,21.25
2018-12-12T23:36:37.926Z,19.91
2018-12-12T23:42:32.907Z,18.37
2018-12-12T23:48:27.916Z,21.75
2018-12-12T23:54:22.931Z,22.37
